Terminal Aerodrome Forecast
Issued by NWS Dodge City, KS

Home | Current Version | Previous Version | Graphics & Text | Print | Product List | Glossary Off
Versions: 1 2 3 4 5 6 7 8 9 10 11 12 13 14 15 16 17 18

000
FTUS43 KDDC 291855 AAA
TAFDDC
TAF AMD
KDDC 291855Z 2919/3018 VRB06KT P6SM VCTS SCT040CB OVC100
      TEMPO 2920/2924 4SM -TSRA BR BKN040CB
     FM300600 15007KT P6SM VCTS OVC015CB=

USA.gov is the U.S. government's official web portal to all federal, state and local government web resources and services.